aviador You're here:

KEPH Decoded Metar

EPHRATA in WA, USA
Report Time2017-08-23 01:53:00
UTC Time2017-08-23 02:13:50
Flight Rules vfr VFR
Wind210° at 07 kt
W.Decomp.*RWY 21: 6.7 kt HW 1.9 kt LCW
RWY 22: 6.3 kt HW 3.1 kt LCW
RWY 11: 0.7 kt HW 7.0 kt RCW
W.Rank210° ranks 11
Current wind is below 210° avg. (8.4)
Visibility9999 m
Phenomena:N/A
Clouds:N/A
Expected CloudBase > 10,800 ft AGL from Temp-Dew spread
CeilingNone
Temp31°C (ISA +18)
Dew Point04°C (18% RH)
Heat Index29.0°C
AAT27.1°C
QNH1012 hPa
Density Alt3,514 ft
Elevation1,257 ft
Report Wrong Elevation
Raw Report
KEPH 230153Z AUTO 21007KT 10SM CLR 31/04 A2989 RMK AO2 SLP112
T03110039=

Extra information for KEPH:More info

Metar Taf Metar & Taf Last 4 Metars F.Rules Stats Wind Profile Meteogram Temp Stats Airport Information Weather charts Add Link Nearby VenuesMetar ALERT Operation Metar Decoded Social comments

AIRNAV info for KEPH